createdAt,value
2018-02-15T00:00:02.705Z,16.00
2018-02-15T00:01:02.685Z,17.20
2018-02-15T00:02:02.718Z,16.20
2018-02-15T00:03:02.695Z,17.40
2018-02-15T00:04:02.687Z,16.10
2018-02-15T00:05:23.685Z,15.80
2018-02-15T00:06:02.682Z,16.50
2018-02-15T00:07:02.733Z,16.20
2018-02-15T00:08:02.903Z,17.40
2018-02-15T00:09:02.673Z,16.20
2018-02-15T00:10:02.675Z,17.50
2018-02-15T00:11:23.677Z,16.50
2018-02-15T00:12:02.661Z,17.30
2018-02-15T00:13:02.663Z,16.60
2018-02-15T00:14:02.654Z,18.20
2018-02-15T00:15:02.656Z,18.10
2018-02-15T00:16:02.646Z,17.90
2018-02-15T00:17:23.757Z,17.40
2018-02-15T00:18:02.643Z,17.50
2018-02-15T00:19:02.647Z,18.00
2018-02-15T00:20:02.655Z,18.40
2018-02-15T00:21:02.666Z,18.40
2018-02-15T00:22:02.633Z,17.20
2018-02-15T00:23:23.673Z,18.90
2018-02-15T00:24:02.631Z,18.00
2018-02-15T00:25:02.626Z,20.80
2018-02-15T00:26:02.625Z,18.40
2018-02-15T00:27:02.619Z,19.20
2018-02-15T00:28:02.620Z,18.30
2018-02-15T00:29:23.650Z,17.30
2018-02-15T00:30:02.603Z,18.10
2018-02-15T00:31:02.625Z,19.10
2018-02-15T00:32:02.610Z,17.40
2018-02-15T00:33:02.597Z,17.80
2018-02-15T00:34:02.628Z,19.40
2018-02-15T00:35:23.664Z,19.50
2018-02-15T00:36:02.590Z,18.80
2018-02-15T00:37:02.591Z,17.70
2018-02-15T00:38:02.586Z,16.80
2018-02-15T00:39:02.694Z,19.10
2018-02-15T00:40:02.589Z,20.90
2018-02-15T00:41:23.582Z,18.50
2018-02-15T00:42:02.600Z,18.80
2018-02-15T00:43:02.578Z,19.50
2018-02-15T00:44:02.634Z,19.30
2018-02-15T00:45:02.569Z,18.40
2018-02-15T00:46:02.567Z,18.00
2018-02-15T00:47:23.572Z,19.40
2018-02-15T00:48:02.563Z,18.90
2018-02-15T00:49:02.558Z,18.80
2018-02-15T00:50:02.586Z,20.00
2018-02-15T00:51:02.552Z,18.30
2018-02-15T00:52:02.687Z,18.80
2018-02-15T00:53:23.552Z,20.00
2018-02-15T00:54:02.546Z,18.40
2018-02-15T00:55:02.559Z,20.40
2018-02-15T00:56:02.539Z,19.00
2018-02-15T00:57:02.528Z,20.90
2018-02-15T00:58:02.530Z,18.20
2018-02-15T00:59:23.538Z,19.30
2018-02-15T01:00:02.585Z,20.50
2018-02-15T01:01:02.525Z,18.40
2018-02-15T01:02:02.529Z,18.30
2018-02-15T01:03:02.537Z,19.00
2018-02-15T01:04:02.518Z,18.40
2018-02-15T01:05:23.550Z,18.10
2018-02-15T01:06:02.511Z,18.20
2018-02-15T01:07:02.506Z,18.00
2018-02-15T01:08:02.548Z,19.20
2018-02-15T01:09:02.581Z,17.90
2018-02-15T01:10:02.502Z,18.00
2018-02-15T01:11:23.503Z,18.10
2018-02-15T01:12:02.495Z,18.00
2018-02-15T01:13:02.487Z,19.60
2018-02-15T01:14:02.491Z,19.00
2018-02-15T01:15:02.528Z,17.40
2018-02-15T01:16:02.492Z,17.50
2018-02-15T01:17:23.490Z,17.20
2018-02-15T01:18:02.703Z,17.80
2018-02-15T01:19:02.480Z,17.50
2018-02-15T01:20:02.466Z,16.90
2018-02-15T01:21:02.468Z,19.20
2018-02-15T01:22:02.463Z,16.10
2018-02-15T01:23:23.478Z,17.90
2018-02-15T01:24:02.452Z,18.10
2018-02-15T01:25:02.508Z,16.70
2018-02-15T01:26:02.540Z,16.90
2018-02-15T01:27:02.457Z,16.40
2018-02-15T01:28:02.458Z,17.30
2018-02-15T01:29:23.447Z,17.60
2018-02-15T01:30:02.483Z,16.50
2018-02-15T01:31:02.436Z,17.80
2018-02-15T01:32:02.507Z,16.50
2018-02-15T01:33:02.432Z,16.60
2018-02-15T01:34:02.439Z,16.00
2018-02-15T01:35:23.439Z,17.00
2018-02-15T01:36:02.422Z,16.70
2018-02-15T01:37:02.444Z,16.20
2018-02-15T01:38:02.443Z,17.50
2018-02-15T01:39:02.446Z,17.20
2018-02-15T01:40:02.413Z,16.60
2018-02-15T01:41:23.425Z,17.00
2018-02-15T01:42:02.411Z,17.30
2018-02-15T01:43:02.411Z,15.80
2018-02-15T01:44:02.403Z,15.90
2018-02-15T01:45:02.407Z,16.90
2018-02-15T01:46:02.407Z,15.70
2018-02-15T01:47:23.413Z,15.50
2018-02-15T01:48:02.450Z,16.20
2018-02-15T01:49:02.394Z,14.80
2018-02-15T01:50:02.395Z,15.90
2018-02-15T01:51:02.384Z,14.90
2018-02-15T01:52:02.396Z,16.00
2018-02-15T01:53:23.420Z,14.90
2018-02-15T01:54:02.375Z,15.60
2018-02-15T01:55:02.371Z,14.80
2018-02-15T01:56:02.380Z,15.70
2018-02-15T01:57:02.368Z,15.30
2018-02-15T01:58:02.371Z,15.80
2018-02-15T01:59:23.384Z,15.40
2018-02-15T02:00:02.360Z,14.60
2018-02-15T02:01:02.356Z,15.60
2018-02-15T02:02:02.355Z,14.90
2018-02-15T02:03:02.350Z,15.10
2018-02-15T02:04:02.350Z,15.60
2018-02-15T02:05:23.358Z,16.30
2018-02-15T02:06:02.351Z,15.30
2018-02-15T02:07:02.347Z,17.30
2018-02-15T02:08:02.408Z,14.70
2018-02-15T02:09:02.335Z,14.90
2018-02-15T02:10:02.332Z,14.40
2018-02-15T02:11:23.347Z,14.30
2018-02-15T02:12:02.322Z,14.80
2018-02-15T02:13:02.347Z,15.30
2018-02-15T02:14:02.333Z,13.90
2018-02-15T02:15:02.329Z,15.20
2018-02-15T02:16:02.319Z,14.50
2018-02-15T02:17:23.342Z,14.20
2018-02-15T02:18:02.316Z,14.10
2018-02-15T02:19:02.429Z,15.40
2018-02-15T02:20:02.314Z,14.00
2018-02-15T02:21:02.305Z,13.70
2018-02-15T02:22:02.302Z,14.90
2018-02-15T02:23:23.332Z,14.80
2018-02-15T02:24:02.305Z,14.10
2018-02-15T02:25:02.327Z,16.60
2018-02-15T02:26:02.355Z,14.10
2018-02-15T02:27:02.300Z,14.20
2018-02-15T02:28:02.325Z,15.30
2018-02-15T02:29:23.294Z,14.70
2018-02-15T02:30:02.284Z,15.70
2018-02-15T02:31:02.286Z,14.20
2018-02-15T02:32:02.277Z,14.70
2018-02-15T02:33:02.277Z,13.80
2018-02-15T02:34:02.276Z,14.90
2018-02-15T02:35:23.291Z,14.20
2018-02-15T02:36:02.303Z,14.80
2018-02-15T02:37:02.274Z,13.50
2018-02-15T02:38:02.257Z,14.60
2018-02-15T02:39:02.362Z,14.50
2018-02-15T02:40:02.255Z,15.20
2018-02-15T02:41:23.270Z,13.50
2018-02-15T02:42:02.255Z,13.70
2018-02-15T02:43:02.254Z,13.70
2018-02-15T02:44:02.249Z,14.60
2018-02-15T02:45:02.263Z,14.50
2018-02-15T02:46:02.251Z,14.40
2018-02-15T02:47:23.254Z,13.40
2018-02-15T02:48:02.251Z,14.20
2018-02-15T02:49:02.231Z,14.10
2018-02-15T02:50:02.226Z,13.60
2018-02-15T02:51:02.247Z,13.90
2018-02-15T02:52:02.286Z,14.00
2018-02-15T02:53:23.242Z,16.30
2018-02-15T02:54:02.222Z,14.70
2018-02-15T02:55:02.238Z,14.30
2018-02-15T02:56:02.222Z,15.00
2018-02-15T02:57:02.215Z,13.90
2018-02-15T02:58:02.219Z,14.30
2018-02-15T02:59:23.222Z,13.90
2018-02-15T03:00:02.228Z,14.50
2018-02-15T03:01:02.241Z,14.50
2018-02-15T03:02:02.208Z,14.70
2018-02-15T03:03:02.196Z,13.50
2018-02-15T03:04:02.202Z,14.10
2018-02-15T03:05:23.206Z,14.90
2018-02-15T03:06:02.193Z,14.50
2018-02-15T03:07:02.197Z,14.50
2018-02-15T03:08:02.201Z,13.80
2018-02-15T03:09:02.188Z,14.10
2018-02-15T03:10:02.997Z,13.90
2018-02-15T03:11:23.200Z,14.00
2018-02-15T03:12:02.187Z,13.70
2018-02-15T03:13:02.178Z,13.60
2018-02-15T03:14:02.195Z,15.70
2018-02-15T03:15:02.176Z,13.10
2018-02-15T03:16:02.244Z,14.90
2018-02-15T03:17:23.174Z,16.00
2018-02-15T03:18:02.159Z,14.70
2018-02-15T03:19:02.226Z,14.00
2018-02-15T03:20:02.252Z,14.40
2018-02-15T03:21:02.158Z,15.10
2018-02-15T03:22:02.171Z,12.90
2018-02-15T03:23:23.159Z,14.50
2018-02-15T03:24:02.151Z,16.10
2018-02-15T03:25:02.152Z,13.50
2018-02-15T03:26:02.148Z,13.20
2018-02-15T03:27:02.137Z,14.00
2018-02-15T03:28:02.143Z,13.60
2018-02-15T03:29:23.142Z,14.30
2018-02-15T03:30:02.138Z,13.20
2018-02-15T03:31:02.134Z,13.90
2018-02-15T03:32:02.160Z,13.90
2018-02-15T03:33:02.133Z,14.20
2018-02-15T03:34:02.131Z,13.40
2018-02-15T03:35:23.124Z,13.80
2018-02-15T03:36:02.311Z,14.70
2018-02-15T03:37:02.959Z,14.30
2018-02-15T03:38:02.112Z,14.10
2018-02-15T03:39:02.125Z,14.20
2018-02-15T03:40:02.998Z,13.80
2018-02-15T03:41:23.110Z,15.10
2018-02-15T03:42:02.128Z,14.00
2018-02-15T03:43:02.110Z,13.70
2018-02-15T03:44:02.098Z,13.70
2018-02-15T03:45:02.093Z,14.10
2018-02-15T03:46:02.105Z,14.50
2018-02-15T03:47:23.097Z,14.00
2018-02-15T03:48:02.101Z,13.20
2018-02-15T03:49:02.087Z,13.50
2018-02-15T03:50:02.088Z,14.10
2018-02-15T03:51:02.084Z,14.80
2018-02-15T03:52:02.097Z,13.90
2018-02-15T03:53:23.084Z,13.40
2018-02-15T03:54:02.077Z,14.50
2018-02-15T03:55:02.079Z,13.80
2018-02-15T03:56:02.076Z,14.20
2018-02-15T03:57:02.096Z,12.50
2018-02-15T03:58:02.069Z,13.10
2018-02-15T03:59:23.071Z,13.50
2018-02-15T04:00:02.072Z,14.20
2018-02-15T04:01:02.054Z,16.20
2018-02-15T04:02:02.059Z,13.90
2018-02-15T04:03:02.053Z,13.10
2018-02-15T04:04:02.052Z,13.30
2018-02-15T04:05:23.066Z,13.40
2018-02-15T04:06:02.044Z,12.90
2018-02-15T04:07:02.047Z,13.50
2018-02-15T04:08:02.039Z,17.60
2018-02-15T04:09:02.040Z,18.10
2018-02-15T04:10:03.009Z,15.00
2018-02-15T04:11:23.043Z,13.30
2018-02-15T04:12:02.034Z,13.00
2018-02-15T04:13:02.136Z,12.50
2018-02-15T04:14:02.024Z,15.40
2018-02-15T04:15:02.018Z,13.80
2018-02-15T04:16:02.034Z,13.30
2018-02-15T04:17:23.045Z,13.60
2018-02-15T04:18:02.029Z,13.40
2018-02-15T04:19:02.042Z,12.20
2018-02-15T04:20:02.018Z,15.80
2018-02-15T04:21:02.104Z,13.60
2018-02-15T04:22:02.003Z,14.20
2018-02-15T04:23:23.008Z,13.60
2018-02-15T04:24:02.006Z,18.40
2018-02-15T04:25:01.997Z,13.90
2018-02-15T04:26:02.000Z,13.40
2018-02-15T04:27:02.000Z,13.60
2018-02-15T04:28:02.000Z,14.10
2018-02-15T04:29:22.995Z,13.40
2018-02-15T04:30:01.988Z,12.70
2018-02-15T04:31:02.024Z,13.40
2018-02-15T04:32:01.983Z,15.20
2018-02-15T04:33:01.975Z,14.30
2018-02-15T04:34:01.986Z,13.60
2018-02-15T04:35:23.038Z,14.10
2018-02-15T04:36:01.972Z,14.50
2018-02-15T04:37:02.013Z,16.80
2018-02-15T04:38:01.977Z,13.50
2018-02-15T04:39:02.011Z,13.90
2018-02-15T04:40:01.976Z,14.40
2018-02-15T04:41:22.973Z,15.30
2018-02-15T04:42:01.965Z,13.90
2018-02-15T04:43:01.961Z,14.30
2018-02-15T04:44:01.963Z,15.00
2018-02-15T04:45:01.962Z,14.20
2018-02-15T04:46:01.961Z,16.70
2018-02-15T04:47:22.959Z,14.10
2018-02-15T04:48:01.950Z,13.40
2018-02-15T04:49:01.956Z,14.50
2018-02-15T04:50:01.943Z,14.70
2018-02-15T04:51:01.943Z,15.00
2018-02-15T04:52:01.944Z,13.70
2018-02-15T04:53:22.943Z,16.30
2018-02-15T04:54:02.520Z,13.50
2018-02-15T04:55:01.924Z,14.10
2018-02-15T04:56:01.930Z,12.50
2018-02-15T04:57:01.935Z,13.80
2018-02-15T04:58:01.925Z,15.10
2018-02-15T04:59:22.930Z,15.50
2018-02-15T05:00:01.925Z,14.70
2018-02-15T05:01:01.951Z,15.90
2018-02-15T05:02:01.915Z,15.50
2018-02-15T05:03:01.919Z,16.40
2018-02-15T05:04:01.971Z,23.10
2018-02-15T05:05:22.925Z,16.20
2018-02-15T05:06:01.906Z,18.50
2018-02-15T05:07:01.903Z,17.70
2018-02-15T05:08:01.898Z,20.70
2018-02-15T05:09:01.903Z,19.10
2018-02-15T05:10:01.923Z,19.50
2018-02-15T05:11:22.901Z,19.80
2018-02-15T05:12:01.894Z,19.90
2018-02-15T05:13:01.891Z,20.70
2018-02-15T05:14:01.878Z,20.20
2018-02-15T05:15:01.880Z,20.40
2018-02-15T05:16:01.889Z,23.40
2018-02-15T05:17:22.890Z,21.60
2018-02-15T05:18:01.881Z,21.10
2018-02-15T05:19:01.863Z,22.80
2018-02-15T05:20:01.870Z,22.70
2018-02-15T05:21:01.858Z,22.80
2018-02-15T05:22:01.947Z,21.80
2018-02-15T05:23:22.884Z,21.70
2018-02-15T05:24:01.861Z,24.60
2018-02-15T05:25:01.850Z,21.90
2018-02-15T05:26:01.870Z,24.00
2018-02-15T05:27:01.837Z,24.10
2018-02-15T05:28:01.854Z,24.80
2018-02-15T05:29:22.838Z,25.00
2018-02-15T05:30:01.836Z,23.70
2018-02-15T05:31:01.843Z,26.00
2018-02-15T05:32:01.846Z,24.30
2018-02-15T05:33:01.830Z,26.10
2018-02-15T05:34:01.823Z,28.80
2018-02-15T05:35:22.826Z,27.20
2018-02-15T05:36:01.903Z,25.90
2018-02-15T05:37:01.822Z,28.90
2018-02-15T05:38:01.815Z,27.60
2018-02-15T05:39:01.903Z,28.10
2018-02-15T05:40:01.811Z,28.00
2018-02-15T05:41:22.823Z,29.80
2018-02-15T05:42:01.882Z,29.40
2018-02-15T05:43:01.804Z,27.50
2018-02-15T05:44:01.828Z,30.30
2018-02-15T05:45:01.927Z,30.50
2018-02-15T05:46:01.801Z,31.60
2018-02-15T05:47:22.798Z,34.30
2018-02-15T05:48:01.794Z,33.20
2018-02-15T05:49:01.786Z,36.40
2018-02-15T05:50:01.799Z,35.40
2018-02-15T05:51:01.826Z,33.80
2018-02-15T05:52:01.806Z,33.10
2018-02-15T05:53:22.789Z,34.60
2018-02-15T05:54:01.861Z,32.00
2018-02-15T05:55:01.774Z,32.50
2018-02-15T05:56:01.761Z,32.50
2018-02-15T05:57:01.804Z,33.10
2018-02-15T05:58:01.799Z,34.90
2018-02-15T05:59:22.762Z,36.10
2018-02-15T06:00:01.785Z,36.90
2018-02-15T06:01:01.755Z,29.70
2018-02-15T06:02:01.740Z,33.00
2018-02-15T06:03:01.753Z,33.40
2018-02-15T06:04:01.782Z,33.30
2018-02-15T06:05:22.748Z,34.10
2018-02-15T06:06:01.734Z,34.50
2018-02-15T06:07:01.729Z,37.30
2018-02-15T06:08:01.761Z,32.90
2018-02-15T06:09:01.732Z,31.40
2018-02-15T06:10:01.744Z,35.20
2018-02-15T06:11:22.804Z,32.00
2018-02-15T06:12:01.726Z,32.30
2018-02-15T06:13:01.760Z,30.70
2018-02-15T06:14:01.706Z,30.60
2018-02-15T06:15:01.710Z,30.20
2018-02-15T06:16:01.725Z,34.40
2018-02-15T06:17:22.710Z,33.70
2018-02-15T06:18:01.741Z,35.30
2018-02-15T06:19:01.739Z,34.00
2018-02-15T06:20:02.539Z,33.50
2018-02-15T06:21:01.810Z,28.60
2018-02-15T06:22:01.681Z,29.70
2018-02-15T06:23:22.865Z,32.30
2018-02-15T06:24:01.702Z,27.80
2018-02-15T06:25:01.867Z,31.50
2018-02-15T06:26:01.680Z,30.60
2018-02-15T06:27:01.683Z,29.80
2018-02-15T06:28:01.662Z,31.80
2018-02-15T06:29:22.699Z,29.90
2018-02-15T06:30:01.667Z,30.40
2018-02-15T06:31:01.658Z,31.30
2018-02-15T06:32:01.645Z,29.10
2018-02-15T06:33:01.831Z,27.00
2018-02-15T06:34:01.657Z,29.60
2018-02-15T06:35:22.676Z,29.60
2018-02-15T06:36:01.639Z,31.30
2018-02-15T06:37:01.647Z,29.70
2018-02-15T06:38:01.721Z,30.90
2018-02-15T06:39:01.632Z,31.00
2018-02-15T06:40:01.804Z,30.90
2018-02-15T06:41:22.674Z,32.20
2018-02-15T06:42:01.644Z,33.30
2018-02-15T06:43:01.984Z,32.20
2018-02-15T06:44:01.632Z,31.50
2018-02-15T06:45:01.607Z,29.50
2018-02-15T06:46:01.615Z,30.60
2018-02-15T06:47:22.624Z,36.90
2018-02-15T06:48:01.622Z,36.40
2018-02-15T06:49:01.608Z,30.60
2018-02-15T06:50:01.600Z,34.60
2018-02-15T06:51:01.606Z,32.50
2018-02-15T06:52:01.605Z,31.90
2018-02-15T06:53:22.587Z,32.60
2018-02-15T06:54:01.739Z,30.30
2018-02-15T06:55:01.588Z,31.00
2018-02-15T06:56:01.709Z,34.50
2018-02-15T06:57:01.594Z,31.50
2018-02-15T06:58:01.571Z,33.50
2018-02-15T06:59:22.687Z,34.40
2018-02-15T07:00:01.575Z,32.40
2018-02-15T07:01:01.595Z,32.80
2018-02-15T07:02:01.579Z,34.20
2018-02-15T07:03:01.563Z,36.70
2018-02-15T07:04:01.577Z,35.20
2018-02-15T07:05:22.573Z,33.30
2018-02-15T07:06:01.656Z,33.90
2018-02-15T07:07:01.549Z,33.40
2018-02-15T07:08:01.613Z,34.40
2018-02-15T07:09:01.543Z,35.60
2018-02-15T07:10:01.549Z,31.30
2018-02-15T07:11:22.561Z,33.10
2018-02-15T07:12:01.591Z,33.20
2018-02-15T07:13:01.547Z,35.00
2018-02-15T07:14:01.612Z,38.90
2018-02-15T07:15:01.519Z,35.50
2018-02-15T07:16:01.548Z,34.50
2018-02-15T07:17:22.527Z,33.40
2018-02-15T07:18:01.513Z,35.00
2018-02-15T07:19:01.519Z,34.80
2018-02-15T07:20:01.509Z,35.80
2018-02-15T07:21:01.520Z,34.50
2018-02-15T07:22:01.511Z,36.40
2018-02-15T07:23:22.518Z,36.10
2018-02-15T07:24:01.597Z,38.90
2018-02-15T07:25:01.502Z,35.20
2018-02-15T07:26:01.501Z,36.90
2018-02-15T07:27:01.503Z,41.90
2018-02-15T07:28:01.614Z,39.40
2018-02-15T07:29:22.479Z,36.40
2018-02-15T07:30:01.502Z,40.20
2018-02-15T07:31:01.483Z,37.10
2018-02-15T07:32:01.471Z,35.90
2018-02-15T07:33:01.476Z,38.50
2018-02-15T07:34:01.486Z,35.20
2018-02-15T07:35:23.033Z,38.80
2018-02-15T07:36:01.462Z,37.80
2018-02-15T07:37:01.467Z,37.50
2018-02-15T07:38:01.467Z,40.10
2018-02-15T07:39:01.492Z,38.80
2018-02-15T07:40:01.469Z,40.20
2018-02-15T07:41:22.456Z,40.30
2018-02-15T07:42:01.446Z,42.40
2018-02-15T07:43:01.439Z,40.80
2018-02-15T07:44:01.493Z,38.70
2018-02-15T07:45:01.438Z,38.60
2018-02-15T07:46:01.430Z,39.00
2018-02-15T07:47:22.485Z,39.90
2018-02-15T07:48:01.456Z,37.30
2018-02-15T07:49:01.417Z,40.40
2018-02-15T07:50:01.607Z,40.50
2018-02-15T07:51:01.423Z,39.30
2018-02-15T07:52:01.428Z,41.80
2018-02-15T07:53:22.430Z,44.50
2018-02-15T07:54:01.401Z,39.50
2018-02-15T07:55:01.433Z,40.60
2018-02-15T07:56:01.427Z,41.90
2018-02-15T07:57:01.633Z,39.90
2018-02-15T07:58:01.400Z,40.10
2018-02-15T07:59:22.420Z,39.80
2018-02-15T08:00:01.419Z,39.10
2018-02-15T08:01:01.425Z,40.80
2018-02-15T08:02:01.541Z,41.10
2018-02-15T08:03:01.438Z,36.40
2018-02-15T08:04:01.521Z,39.40
2018-02-15T08:05:22.460Z,40.40
2018-02-15T08:06:01.479Z,36.20
2018-02-15T08:07:01.397Z,40.20
2018-02-15T08:08:01.376Z,39.60
2018-02-15T08:09:01.392Z,38.10
2018-02-15T08:10:01.401Z,35.00
2018-02-15T08:11:22.381Z,35.40
2018-02-15T08:12:01.361Z,37.50
2018-02-15T08:13:01.492Z,34.90
2018-02-15T08:14:01.357Z,35.50
2018-02-15T08:15:01.434Z,37.50
2018-02-15T08:16:01.407Z,39.10
2018-02-15T08:17:22.368Z,38.80
2018-02-15T08:18:01.885Z,37.10
2018-02-15T08:19:01.369Z,39.50
2018-02-15T08:20:01.355Z,81.00
2018-02-15T08:21:01.354Z,54.50
2018-02-15T08:22:01.336Z,35.60
2018-02-15T08:23:22.349Z,36.40
2018-02-15T08:24:01.608Z,36.40
2018-02-15T08:25:01.328Z,36.30
2018-02-15T08:26:01.368Z,37.50
2018-02-15T08:27:01.325Z,32.90
2018-02-15T08:28:01.321Z,34.40
2018-02-15T08:29:22.317Z,34.50
2018-02-15T08:30:01.379Z,37.80
2018-02-15T08:31:01.369Z,39.10
2018-02-15T08:32:01.411Z,35.70
2018-02-15T08:33:01.309Z,36.10
2018-02-15T08:34:01.307Z,33.30
2018-02-15T08:35:22.433Z,36.50
2018-02-15T08:36:01.294Z,39.10
2018-02-15T08:37:01.288Z,33.30
2018-02-15T08:38:01.312Z,34.20
2018-02-15T08:39:01.296Z,33.20
2018-02-15T08:40:01.295Z,33.60
2018-02-15T08:41:22.292Z,34.70
2018-02-15T08:42:01.299Z,34.30
2018-02-15T08:43:01.293Z,34.80
2018-02-15T08:44:01.391Z,32.10
2018-02-15T08:45:01.283Z,35.10
2018-02-15T08:46:01.366Z,35.70
2018-02-15T08:47:22.276Z,38.20
2018-02-15T08:48:01.309Z,37.50
2018-02-15T08:49:02.052Z,35.70
2018-02-15T08:50:01.254Z,33.70
2018-02-15T08:51:01.271Z,34.40
2018-02-15T08:52:01.268Z,37.70
2018-02-15T08:53:22.306Z,36.10
2018-02-15T08:54:01.299Z,35.70
2018-02-15T08:55:01.294Z,33.50
2018-02-15T08:56:01.310Z,36.30
2018-02-15T08:57:02.090Z,32.90
2018-02-15T08:58:01.246Z,36.20
2018-02-15T08:59:22.242Z,38.60
2018-02-15T09:00:01.243Z,37.40
2018-02-15T09:01:01.237Z,35.80
2018-02-15T09:02:01.332Z,34.10
2018-02-15T09:03:01.237Z,33.70
2018-02-15T09:04:01.227Z,38.20
2018-02-15T09:05:22.236Z,42.20
2018-02-15T09:06:01.233Z,33.80
2018-02-15T09:07:01.253Z,35.30
2018-02-15T09:08:01.252Z,36.20
2018-02-15T09:09:01.265Z,37.10
2018-02-15T09:10:01.215Z,37.70
2018-02-15T09:11:22.228Z,35.90
2018-02-15T09:12:01.193Z,38.90
2018-02-15T09:13:01.196Z,35.80
2018-02-15T09:14:01.218Z,34.70
2018-02-15T09:15:01.210Z,34.50
2018-02-15T09:16:01.201Z,35.90
2018-02-15T09:17:22.482Z,34.50
2018-02-15T09:18:01.286Z,35.00
2018-02-15T09:19:01.194Z,36.20
2018-02-15T09:20:01.199Z,35.70
2018-02-15T09:21:01.180Z,32.50
2018-02-15T09:22:01.172Z,33.20
2018-02-15T09:23:22.186Z,34.70
2018-02-15T09:24:01.192Z,32.30
2018-02-15T09:25:01.179Z,33.30
2018-02-15T09:26:01.177Z,34.40
2018-02-15T09:27:01.193Z,34.60
2018-02-15T09:28:02.046Z,32.60
2018-02-15T09:29:22.178Z,34.10
2018-02-15T09:30:01.175Z,33.30
2018-02-15T09:31:01.208Z,33.00
2018-02-15T09:32:01.177Z,32.60
2018-02-15T09:33:01.152Z,34.30
2018-02-15T09:34:01.151Z,35.00
2018-02-15T09:35:22.179Z,31.70
2018-02-15T09:36:01.173Z,32.80
2018-02-15T09:37:01.150Z,31.50
2018-02-15T09:38:01.162Z,32.00
2018-02-15T09:39:01.163Z,44.90
2018-02-15T09:40:01.139Z,47.00
2018-02-15T09:41:22.154Z,33.00
2018-02-15T09:42:01.136Z,31.30
2018-02-15T09:43:01.137Z,31.90
2018-02-15T09:44:01.199Z,32.10
2018-02-15T09:45:01.125Z,35.00
2018-02-15T09:46:01.133Z,31.50
2018-02-15T09:47:22.160Z,34.30
2018-02-15T09:48:01.135Z,31.90
2018-02-15T09:49:02.037Z,32.30
2018-02-15T09:50:01.104Z,31.30
2018-02-15T09:51:01.122Z,30.50
2018-02-15T09:52:01.126Z,30.50
2018-02-15T09:53:22.138Z,30.90
2018-02-15T09:54:01.112Z,31.20
2018-02-15T09:55:01.113Z,33.30
2018-02-15T09:56:01.126Z,33.70
2018-02-15T09:57:01.096Z,30.90
2018-02-15T09:58:01.090Z,30.30
2018-02-15T09:59:22.101Z,28.40
2018-02-15T10:00:01.118Z,30.80
2018-02-15T10:01:01.098Z,28.60
2018-02-15T10:02:01.108Z,28.50
2018-02-15T10:03:01.088Z,30.80
2018-02-15T10:04:01.097Z,32.50
2018-02-15T10:05:22.094Z,32.60
2018-02-15T10:06:01.152Z,29.40
2018-02-15T10:07:01.111Z,29.10
2018-02-15T10:08:01.064Z,26.40
2018-02-15T10:09:01.059Z,26.90
2018-02-15T10:10:01.094Z,26.70
2018-02-15T10:11:22.074Z,28.00
2018-02-15T10:12:01.088Z,24.90
2018-02-15T10:13:01.065Z,30.50
2018-02-15T10:14:01.068Z,28.30
2018-02-15T10:15:01.046Z,25.90
2018-02-15T10:16:01.049Z,22.40
2018-02-15T10:17:22.070Z,24.60
2018-02-15T10:18:01.172Z,26.20
2018-02-15T10:19:01.044Z,24.60
2018-02-15T10:20:02.442Z,27.30
2018-02-15T10:21:01.557Z,23.30
2018-02-15T10:22:01.077Z,22.60
2018-02-15T10:23:22.050Z,23.30
2018-02-15T10:24:01.044Z,25.50
2018-02-15T10:25:01.094Z,22.80
2018-02-15T10:26:01.036Z,22.60
2018-02-15T10:27:01.086Z,21.00
2018-02-15T10:28:01.035Z,21.70
2018-02-15T10:29:22.045Z,22.40
2018-02-15T10:30:01.069Z,21.50
2018-02-15T10:31:01.163Z,20.70
2018-02-15T10:32:01.024Z,19.40
2018-02-15T10:33:01.020Z,19.90
2018-02-15T10:34:01.050Z,22.20
2018-02-15T10:35:22.027Z,21.30
2018-02-15T10:36:01.022Z,20.10
2018-02-15T10:37:01.026Z,25.10
2018-02-15T10:38:00.998Z,20.20
2018-02-15T10:39:01.028Z,22.10
2018-02-15T10:40:02.070Z,20.40
2018-02-15T10:41:22.038Z,21.00
2018-02-15T10:42:01.025Z,20.00
2018-02-15T10:43:01.004Z,21.50
2018-02-15T10:44:01.051Z,19.70
2018-02-15T10:45:01.013Z,19.20
2018-02-15T10:46:00.996Z,21.50
2018-02-15T10:47:22.016Z,19.50
2018-02-15T10:48:00.984Z,20.50
2018-02-15T10:49:01.120Z,19.90
2018-02-15T10:50:01.025Z,20.60
2018-02-15T10:51:00.996Z,22.20
2018-02-15T10:52:00.997Z,19.60
2018-02-15T10:53:22.066Z,21.10
2018-02-15T10:54:00.985Z,19.20
2018-02-15T10:55:00.981Z,19.10
2018-02-15T10:56:01.067Z,19.90
2018-02-15T10:57:00.966Z,20.00
2018-02-15T10:58:00.974Z,20.20
2018-02-15T10:59:22.248Z,19.70
2018-02-15T11:00:02.136Z,19.60
2018-02-15T11:01:01.489Z,19.70
2018-02-15T11:02:01.565Z,21.20
2018-02-15T11:03:01.010Z,20.80
2018-02-15T11:04:01.001Z,20.30
2018-02-15T11:05:21.969Z,21.40
2018-02-15T11:06:00.979Z,20.70
2018-02-15T11:07:00.943Z,21.70
2018-02-15T11:08:00.969Z,20.50
2018-02-15T11:09:00.946Z,20.70
2018-02-15T11:10:01.013Z,20.70
2018-02-15T11:11:21.942Z,20.80
2018-02-15T11:12:00.964Z,21.60
2018-02-15T11:13:00.977Z,22.50
2018-02-15T11:14:01.078Z,20.00
2018-02-15T11:15:01.064Z,21.80
2018-02-15T11:16:00.943Z,22.80
2018-02-15T11:17:22.020Z,21.30
2018-02-15T11:18:00.990Z,24.20
2018-02-15T11:19:00.938Z,24.20
2018-02-15T11:20:00.998Z,21.90
2018-02-15T11:21:00.947Z,23.90
2018-02-15T11:22:00.955Z,22.50
2018-02-15T11:23:21.944Z,23.30
2018-02-15T11:24:00.938Z,23.00
2018-02-15T11:25:00.979Z,23.70
2018-02-15T11:26:00.923Z,23.50
2018-02-15T11:27:00.942Z,22.70
2018-02-15T11:28:00.993Z,22.50
2018-02-15T11:29:21.933Z,24.30
2018-02-15T11:30:00.913Z,24.80
2018-02-15T11:31:00.903Z,24.00
2018-02-15T11:32:00.906Z,25.30
2018-02-15T11:33:00.932Z,24.80
2018-02-15T11:34:00.905Z,24.40
2018-02-15T11:35:21.975Z,25.70
2018-02-15T11:36:00.915Z,25.20
2018-02-15T11:37:00.905Z,26.90
2018-02-15T11:38:00.916Z,26.10
2018-02-15T11:39:00.900Z,26.60
2018-02-15T11:40:00.891Z,25.80
2018-02-15T11:41:21.905Z,26.10
2018-02-15T11:42:00.889Z,37.20
2018-02-15T11:43:00.891Z,36.40
2018-02-15T11:44:00.892Z,27.90
2018-02-15T11:45:00.900Z,28.30
2018-02-15T11:46:01.521Z,28.10
2018-02-15T11:47:21.941Z,27.70
2018-02-15T11:48:00.896Z,28.60
2018-02-15T11:49:00.902Z,28.10
2018-02-15T11:50:00.882Z,28.50
2018-02-15T11:51:00.879Z,28.70
2018-02-15T11:52:00.888Z,27.30
2018-02-15T11:53:21.908Z,28.40
2018-02-15T11:54:00.870Z,29.80
2018-02-15T11:55:00.876Z,29.30
2018-02-15T11:56:00.904Z,29.20
2018-02-15T11:57:00.910Z,30.60
2018-02-15T11:58:00.885Z,30.70
2018-02-15T11:59:21.893Z,31.30
2018-02-15T12:00:00.898Z,32.00
2018-02-15T12:01:00.896Z,32.40
2018-02-15T12:02:00.874Z,31.60
2018-02-15T12:03:00.857Z,33.10
2018-02-15T12:04:00.871Z,33.00
2018-02-15T12:05:21.991Z,33.40
2018-02-15T12:06:00.857Z,32.40
2018-02-15T12:07:00.853Z,36.50
2018-02-15T12:08:00.858Z,35.10
2018-02-15T12:09:00.855Z,34.90
2018-02-15T12:10:00.912Z,35.00
2018-02-15T12:11:22.587Z,36.20
2018-02-15T12:12:00.847Z,35.20
2018-02-15T12:13:00.877Z,36.70
2018-02-15T12:14:00.842Z,36.10
2018-02-15T12:15:00.978Z,36.60
2018-02-15T12:16:00.848Z,37.30
2018-02-15T12:17:21.863Z,38.30
2018-02-15T12:18:00.853Z,35.80
2018-02-15T12:19:00.827Z,35.60
2018-02-15T12:20:00.842Z,35.40
2018-02-15T12:21:00.852Z,36.60
2018-02-15T12:22:00.846Z,35.90
2018-02-15T12:23:21.875Z,36.90
2018-02-15T12:24:00.820Z,36.20
2018-02-15T12:25:00.883Z,37.30
2018-02-15T12:26:00.829Z,40.70
2018-02-15T12:27:00.839Z,36.90
2018-02-15T12:28:00.816Z,37.40
2018-02-15T12:29:21.938Z,38.00
2018-02-15T12:30:00.805Z,41.00
2018-02-15T12:31:00.810Z,40.10
2018-02-15T12:32:00.814Z,38.10
2018-02-15T12:33:00.816Z,39.10
2018-02-15T12:34:00.834Z,37.40
2018-02-15T12:35:21.814Z,35.70
2018-02-15T12:36:00.924Z,35.30
2018-02-15T12:37:00.840Z,38.60
2018-02-15T12:38:00.810Z,37.40
2018-02-15T12:39:00.819Z,37.10
2018-02-15T12:40:00.834Z,37.30
2018-02-15T12:41:21.801Z,34.40
2018-02-15T12:42:00.799Z,34.40
2018-02-15T12:43:00.783Z,33.20
2018-02-15T12:44:00.799Z,32.10
2018-02-15T12:45:00.780Z,32.50
2018-02-15T12:46:01.575Z,32.40
2018-02-15T12:47:21.832Z,30.80
2018-02-15T12:48:00.808Z,35.00
2018-02-15T12:49:00.819Z,34.40
2018-02-15T12:50:00.783Z,31.70
2018-02-15T12:51:00.783Z,33.30
2018-02-15T12:52:00.819Z,33.50